sensor_id;sensor_type;location;lat;lon;timestamp;temperature;humidity
6178;DHT22;3122;48.208;11.174;2023-04-25T00:00:54;7.30;1.00
6178;DHT22;3122;48.208;11.174;2023-04-25T00:05:55;7.40;1.00
6178;DHT22;3122;48.208;11.174;2023-04-25T00:10:57;7.30;1.00
6178;DHT22;3122;48.208;11.174;2023-04-25T00:15:58;7.30;1.00
6178;DHT22;3122;48.208;11.174;2023-04-25T00:20:58;7.20;1.00
6178;DHT22;3122;48.208;11.174;2023-04-25T00:25:59;7.30;1.00
6178;DHT22;3122;48.208;11.174;2023-04-25T00:31:00;7.20;1.00
6178;DHT22;3122;48.208;11.174;2023-04-25T00:36:00;7.20;1.00
6178;DHT22;3122;48.208;11.174;2023-04-25T00:41:01;7.20;1.00
6178;DHT22;3122;48.208;11.174;2023-04-25T00:46:01;6.90;1.00
6178;DHT22;3122;48.208;11.174;2023-04-25T00:51:02;6.90;1.00
6178;DHT22;3122;48.208;11.174;2023-04-25T00:56:03;6.80;1.00
6178;DHT22;3122;48.208;11.174;2023-04-25T01:01:04;6.70;1.00
6178;DHT22;3122;48.208;11.174;2023-04-25T01:06:08;6.70;1.00
6178;DHT22;3122;48.208;11.174;2023-04-25T01:11:09;6.60;1.00
6178;DHT22;3122;48.208;11.174;2023-04-25T01:16:10;6.60;1.00
6178;DHT22;3122;48.208;11.174;2023-04-25T01:21:11;6.60;1.00
6178;DHT22;3122;48.208;11.174;2023-04-25T01:26:13;6.50;1.00
6178;DHT22;3122;48.208;11.174;2023-04-25T01:31:15;6.30;1.00
6178;DHT22;3122;48.208;11.174;2023-04-25T01:36:16;6.30;1.00
6178;DHT22;3122;48.208;11.174;2023-04-25T01:41:17;6.20;1.00
6178;DHT22;3122;48.208;11.174;2023-04-25T01:46:18;6.20;1.00
6178;DHT22;3122;48.208;11.174;2023-04-25T01:51:19;6.20;1.00
6178;DHT22;3122;48.208;11.174;2023-04-25T01:56:19;6.20;1.00
6178;DHT22;3122;48.208;11.174;2023-04-25T02:01:20;6.10;1.00
6178;DHT22;3122;48.208;11.174;2023-04-25T02:06:21;6.10;1.00
6178;DHT22;3122;48.208;11.174;2023-04-25T02:11:21;6.00;1.00
6178;DHT22;3122;48.208;11.174;2023-04-25T02:16:22;6.10;1.00
6178;DHT22;3122;48.208;11.174;2023-04-25T02:21:23;6.10;1.00
6178;DHT22;3122;48.208;11.174;2023-04-25T02:26:24;6.20;1.00
6178;DHT22;3122;48.208;11.174;2023-04-25T02:31:25;6.30;1.00
6178;DHT22;3122;48.208;11.174;2023-04-25T02:36:26;6.30;1.00
6178;DHT22;3122;48.208;11.174;2023-04-25T02:41:27;6.30;1.00
6178;DHT22;3122;48.208;11.174;2023-04-25T02:46:27;6.50;1.00
6178;DHT22;3122;48.208;11.174;2023-04-25T02:51:28;6.60;1.00
6178;DHT22;3122;48.208;11.174;2023-04-25T02:56:28;6.50;1.00
6178;DHT22;3122;48.208;11.174;2023-04-25T03:01:29;6.40;1.00
6178;DHT22;3122;48.208;11.174;2023-04-25T03:06:30;6.50;1.00
6178;DHT22;3122;48.208;11.174;2023-04-25T03:11:31;6.50;1.00
6178;DHT22;3122;48.208;11.174;2023-04-25T03:16:31;6.30;1.00
6178;DHT22;3122;48.208;11.174;2023-04-25T03:21:33;6.20;1.00
6178;DHT22;3122;48.208;11.174;2023-04-25T03:26:34;6.30;1.00
6178;DHT22;3122;48.208;11.174;2023-04-25T03:31:35;6.10;1.00
6178;DHT22;3122;48.208;11.174;2023-04-25T03:36:35;6.20;1.00
6178;DHT22;3122;48.208;11.174;2023-04-25T03:41:36;6.10;1.00
6178;DHT22;3122;48.208;11.174;2023-04-25T03:46:36;6.00;1.00
6178;DHT22;3122;48.208;11.174;2023-04-25T03:51:37;6.00;1.00
6178;DHT22;3122;48.208;11.174;2023-04-25T03:56:37;5.90;1.00
6178;DHT22;3122;48.208;11.174;2023-04-25T04:01:38;6.00;1.00
6178;DHT22;3122;48.208;11.174;2023-04-25T04:06:39;6.10;1.00
6178;DHT22;3122;48.208;11.174;2023-04-25T04:11:40;6.00;1.00
6178;DHT22;3122;48.208;11.174;2023-04-25T04:16:40;6.00;1.00
6178;DHT22;3122;48.208;11.174;2023-04-25T04:21:41;5.90;1.00
6178;DHT22;3122;48.208;11.174;2023-04-25T04:26:42;5.90;1.00
6178;DHT22;3122;48.208;11.174;2023-04-25T04:31:45;5.90;1.00
6178;DHT22;3122;48.208;11.174;2023-04-25T04:36:45;6.10;1.00
6178;DHT22;3122;48.208;11.174;2023-04-25T04:41:47;6.00;1.00
6178;DHT22;3122;48.208;11.174;2023-04-25T04:46:47;6.00;1.00
6178;DHT22;3122;48.208;11.174;2023-04-25T04:51:48;6.10;1.00
6178;DHT22;3122;48.208;11.174;2023-04-25T04:56:50;6.20;1.00
6178;DHT22;3122;48.208;11.174;2023-04-25T05:01:52;6.20;1.00
6178;DHT22;3122;48.208;11.174;2023-04-25T05:06:53;6.20;1.00
6178;DHT22;3122;48.208;11.174;2023-04-25T05:11:53;6.20;1.00
6178;DHT22;3122;48.208;11.174;2023-04-25T05:16:54;6.20;1.00
6178;DHT22;3122;48.208;11.174;2023-04-25T05:21:55;6.20;1.00
6178;DHT22;3122;48.208;11.174;2023-04-25T05:26:55;6.30;1.00
6178;DHT22;3122;48.208;11.174;2023-04-25T05:31:56;6.10;1.00
6178;DHT22;3122;48.208;11.174;2023-04-25T05:36:56;6.10;1.00
6178;DHT22;3122;48.208;11.174;2023-04-25T05:41:57;6.00;1.00
6178;DHT22;3122;48.208;11.174;2023-04-25T05:46:57;5.80;1.00
6178;DHT22;3122;48.208;11.174;2023-04-25T05:51:58;5.70;1.00
6178;DHT22;3122;48.208;11.174;2023-04-25T05:56:58;5.70;1.00
6178;DHT22;3122;48.208;11.174;2023-04-25T06:02:00;5.80;1.00
6178;DHT22;3122;48.208;11.174;2023-04-25T06:07:01;5.80;1.00
6178;DHT22;3122;48.208;11.174;2023-04-25T06:12:01;5.90;1.00
6178;DHT22;3122;48.208;11.174;2023-04-25T06:17:03;6.00;1.00
6178;DHT22;3122;48.208;11.174;2023-04-25T06:22:07;6.30;1.00
6178;DHT22;3122;48.208;11.174;2023-04-25T06:27:07;6.50;1.00
6178;DHT22;3122;48.208;11.174;2023-04-25T06:32:08;6.70;1.00
6178;DHT22;3122;48.208;11.174;2023-04-25T06:37:08;6.70;1.00
6178;DHT22;3122;48.208;11.174;2023-04-25T06:42:09;6.70;1.00
6178;DHT22;3122;48.208;11.174;2023-04-25T06:47:10;6.70;1.00
6178;DHT22;3122;48.208;11.174;2023-04-25T06:52:10;6.70;1.00
6178;DHT22;3122;48.208;11.174;2023-04-25T06:57:11;6.80;1.00
6178;DHT22;3122;48.208;11.174;2023-04-25T07:02:11;6.80;1.00
6178;DHT22;3122;48.208;11.174;2023-04-25T07:07:12;6.90;1.00
6178;DHT22;3122;48.208;11.174;2023-04-25T07:12:13;7.10;1.00
6178;DHT22;3122;48.208;11.174;2023-04-25T07:17:13;7.30;1.00
6178;DHT22;3122;48.208;11.174;2023-04-25T07:22:14;7.60;1.00
6178;DHT22;3122;48.208;11.174;2023-04-25T07:27:15;7.90;1.00
6178;DHT22;3122;48.208;11.174;2023-04-25T07:32:15;8.20;1.00
6178;DHT22;3122;48.208;11.174;2023-04-25T07:37:16;8.30;1.00
6178;DHT22;3122;48.208;11.174;2023-04-25T07:42:18;8.30;1.00
6178;DHT22;3122;48.208;11.174;2023-04-25T07:47:19;8.30;1.00
6178;DHT22;3122;48.208;11.174;2023-04-25T07:52:20;8.00;1.00
6178;DHT22;3122;48.208;11.174;2023-04-25T07:57:21;8.20;1.00
6178;DHT22;3122;48.208;11.174;2023-04-25T08:02:22;8.50;1.00
6178;DHT22;3122;48.208;11.174;2023-04-25T08:07:22;8.70;1.00
6178;DHT22;3122;48.208;11.174;2023-04-25T08:12:23;9.10;1.00
6178;DHT22;3122;48.208;11.174;2023-04-25T08:17:24;9.30;1.00
6178;DHT22;3122;48.208;11.174;2023-04-25T08:22:24;9.30;1.00
6178;DHT22;3122;48.208;11.174;2023-04-25T08:27:25;9.20;1.00
6178;DHT22;3122;48.208;11.174;2023-04-25T08:32:25;9.00;1.00
6178;DHT22;3122;48.208;11.174;2023-04-25T08:37:26;8.80;1.00
6178;DHT22;3122;48.208;11.174;2023-04-25T08:42:27;8.80;1.00
6178;DHT22;3122;48.208;11.174;2023-04-25T08:47:30;9.00;1.00
6178;DHT22;3122;48.208;11.174;2023-04-25T08:52:44;9.40;1.00
6178;DHT22;3122;48.208;11.174;2023-04-25T08:57:46;9.60;1.00
6178;DHT22;3122;48.208;11.174;2023-04-25T09:02:47;9.90;1.00
6178;DHT22;3122;48.208;11.174;2023-04-25T09:07:47;10.20;1.00
6178;DHT22;3122;48.208;11.174;2023-04-25T09:13:11;10.00;1.00
6178;DHT22;3122;48.208;11.174;2023-04-25T09:18:29;9.70;1.00
6178;DHT22;3122;48.208;11.174;2023-04-25T09:23:31;9.80;1.00
6178;DHT22;3122;48.208;11.174;2023-04-25T09:28:38;10.40;1.00
6178;DHT22;3122;48.208;11.174;2023-04-25T09:33:40;10.80;1.00
6178;DHT22;3122;48.208;11.174;2023-04-25T09:38:43;11.00;1.00
6178;DHT22;3122;48.208;11.174;2023-04-25T09:43:45;10.90;1.00
6178;DHT22;3122;48.208;11.174;2023-04-25T09:48:50;10.40;1.00
6178;DHT22;3122;48.208;11.174;2023-04-25T09:53:51;10.30;1.00
6178;DHT22;3122;48.208;11.174;2023-04-25T09:58:53;10.20;1.00
6178;DHT22;3122;48.208;11.174;2023-04-25T10:03:56;10.20;1.00
6178;DHT22;3122;48.208;11.174;2023-04-25T10:08:58;10.30;1.00
6178;DHT22;3122;48.208;11.174;2023-04-25T10:14:00;9.80;1.00
6178;DHT22;3122;48.208;11.174;2023-04-25T10:19:01;8.00;1.00
6178;DHT22;3122;48.208;11.174;2023-04-25T10:24:02;7.10;1.00
6178;DHT22;3122;48.208;11.174;2023-04-25T10:29:03;7.30;1.00
6178;DHT22;3122;48.208;11.174;2023-04-25T10:34:04;7.20;1.00
6178;DHT22;3122;48.208;11.174;2023-04-25T10:39:06;7.30;1.00
6178;DHT22;3122;48.208;11.174;2023-04-25T10:44:10;7.50;1.00
6178;DHT22;3122;48.208;11.174;2023-04-25T10:49:10;7.70;1.00
6178;DHT22;3122;48.208;11.174;2023-04-25T10:54:11;7.80;1.00
6178;DHT22;3122;48.208;11.174;2023-04-25T10:59:14;7.90;1.00
6178;DHT22;3122;48.208;11.174;2023-04-25T11:04:24;8.10;1.00
6178;DHT22;3122;48.208;11.174;2023-04-25T11:09:26;8.40;1.00
6178;DHT22;3122;48.208;11.174;2023-04-25T11:14:27;8.80;1.00
6178;DHT22;3122;48.208;11.174;2023-04-25T11:19:28;8.70;1.00
6178;DHT22;3122;48.208;11.174;2023-04-25T11:24:33;8.50;1.00
6178;DHT22;3122;48.208;11.174;2023-04-25T11:29:35;8.10;1.00
6178;DHT22;3122;48.208;11.174;2023-04-25T11:34:35;7.40;1.00
6178;DHT22;3122;48.208;11.174;2023-04-25T11:39:36;7.10;1.00
6178;DHT22;3122;48.208;11.174;2023-04-25T11:44:38;7.00;1.00
6178;DHT22;3122;48.208;11.174;2023-04-25T11:49:39;6.90;1.00
6178;DHT22;3122;48.208;11.174;2023-04-25T11:54:39;6.60;1.00
6178;DHT22;3122;48.208;11.174;2023-04-25T11:59:41;6.50;1.00
6178;DHT22;3122;48.208;11.174;2023-04-25T12:04:41;6.40;1.00
6178;DHT22;3122;48.208;11.174;2023-04-25T12:09:42;6.30;1.00
6178;DHT22;3122;48.208;11.174;2023-04-25T12:14:46;6.30;1.00
6178;DHT22;3122;48.208;11.174;2023-04-25T12:19:49;6.40;1.00
6178;DHT22;3122;48.208;11.174;2023-04-25T12:24:50;6.50;1.00
6178;DHT22;3122;48.208;11.174;2023-04-25T12:29:52;6.70;1.00
6178;DHT22;3122;48.208;11.174;2023-04-25T12:34:53;6.60;1.00
6178;DHT22;3122;48.208;11.174;2023-04-25T12:39:53;6.70;1.00
6178;DHT22;3122;48.208;11.174;2023-04-25T12:44:54;6.90;1.00
6178;DHT22;3122;48.208;11.174;2023-04-25T12:49:54;7.10;1.00
6178;DHT22;3122;48.208;11.174;2023-04-25T12:54:55;6.60;1.00
6178;DHT22;3122;48.208;11.174;2023-04-25T12:59:55;6.20;1.00
6178;DHT22;3122;48.208;11.174;2023-04-25T13:04:56;6.10;1.00
6178;DHT22;3122;48.208;11.174;2023-04-25T13:09:56;6.00;1.00
6178;DHT22;3122;48.208;11.174;2023-04-25T13:14:57;6.10;1.00
6178;DHT22;3122;48.208;11.174;2023-04-25T13:19:58;6.20;1.00
6178;DHT22;3122;48.208;11.174;2023-04-25T13:24:58;6.30;1.00
6178;DHT22;3122;48.208;11.174;2023-04-25T13:30:00;6.60;1.00
6178;DHT22;3122;48.208;11.174;2023-04-25T13:35:06;6.50;1.00
6178;DHT22;3122;48.208;11.174;2023-04-25T13:40:09;6.50;1.00
6178;DHT22;3122;48.208;11.174;2023-04-25T13:45:10;6.40;1.00
6178;DHT22;3122;48.208;11.174;2023-04-25T13:50:11;6.30;1.00
6178;DHT22;3122;48.208;11.174;2023-04-25T13:55:11;6.50;1.00
6178;DHT22;3122;48.208;11.174;2023-04-25T14:00:12;6.60;1.00
6178;DHT22;3122;48.208;11.174;2023-04-25T14:05:13;6.50;1.00
6178;DHT22;3122;48.208;11.174;2023-04-25T14:10:14;6.50;1.00
6178;DHT22;3122;48.208;11.174;2023-04-25T14:15:15;6.80;1.00
6178;DHT22;3122;48.208;11.174;2023-04-25T14:20:15;6.90;1.00
6178;DHT22;3122;48.208;11.174;2023-04-25T14:25:20;7.10;1.00
6178;DHT22;3122;48.208;11.174;2023-04-25T14:30:21;6.90;1.00
6178;DHT22;3122;48.208;11.174;2023-04-25T14:35:22;7.10;1.00
6178;DHT22;3122;48.208;11.174;2023-04-25T14:40:22;7.00;1.00
6178;DHT22;3122;48.208;11.174;2023-04-25T14:45:23;7.00;1.00
6178;DHT22;3122;48.208;11.174;2023-04-25T14:50:24;7.00;1.00
6178;DHT22;3122;48.208;11.174;2023-04-25T14:55:24;7.10;1.00
6178;DHT22;3122;48.208;11.174;2023-04-25T15:00:25;7.00;1.00
6178;DHT22;3122;48.208;11.174;2023-04-25T15:05:26;6.80;1.00
6178;DHT22;3122;48.208;11.174;2023-04-25T15:10:28;6.80;1.00
6178;DHT22;3122;48.208;11.174;2023-04-25T15:15:29;6.90;1.00
6178;DHT22;3122;48.208;11.174;2023-04-25T15:20:29;6.80;1.00
6178;DHT22;3122;48.208;11.174;2023-04-25T15:25:30;6.90;1.00
6178;DHT22;3122;48.208;11.174;2023-04-25T15:30:30;6.90;1.00
6178;DHT22;3122;48.208;11.174;2023-04-25T15:35:31;6.80;1.00
6178;DHT22;3122;48.208;11.174;2023-04-25T15:40:31;6.70;1.00
6178;DHT22;3122;48.208;11.174;2023-04-25T15:45:32;6.80;1.00
6178;DHT22;3122;48.208;11.174;2023-04-25T15:50:33;6.80;1.00
6178;DHT22;3122;48.208;11.174;2023-04-25T15:55:35;6.80;1.00
6178;DHT22;3122;48.208;11.174;2023-04-25T16:00:36;6.90;1.00
6178;DHT22;3122;48.208;11.174;2023-04-25T16:05:39;7.10;1.00
6178;DHT22;3122;48.208;11.174;2023-04-25T16:10:40;7.00;1.00
6178;DHT22;3122;48.208;11.174;2023-04-25T16:15:41;7.20;1.00
6178;DHT22;3122;48.208;11.174;2023-04-25T16:20:41;7.20;1.00
6178;DHT22;3122;48.208;11.174;2023-04-25T16:25:42;7.30;1.00
6178;DHT22;3122;48.208;11.174;2023-04-25T16:30:43;7.40;1.00
6178;DHT22;3122;48.208;11.174;2023-04-25T16:35:44;7.40;1.00
6178;DHT22;3122;48.208;11.174;2023-04-25T16:40:44;7.50;1.00
6178;DHT22;3122;48.208;11.174;2023-04-25T16:45:45;7.60;1.00
6178;DHT22;3122;48.208;11.174;2023-04-25T16:50:46;8.20;1.00
6178;DHT22;3122;48.208;11.174;2023-04-25T16:55:46;8.70;1.00
6178;DHT22;3122;48.208;11.174;2023-04-25T17:00:47;8.60;1.00
6178;DHT22;3122;48.208;11.174;2023-04-25T17:05:49;8.30;1.00
6178;DHT22;3122;48.208;11.174;2023-04-25T17:10:50;7.90;1.00
6178;DHT22;3122;48.208;11.174;2023-04-25T17:15:50;7.90;1.00
6178;DHT22;3122;48.208;11.174;2023-04-25T17:20:51;7.80;1.00
6178;DHT22;3122;48.208;11.174;2023-04-25T17:25:51;7.70;1.00
6178;DHT22;3122;48.208;11.174;2023-04-25T17:30:52;7.60;1.00
6178;DHT22;3122;48.208;11.174;2023-04-25T17:35:53;7.60;1.00
6178;DHT22;3122;48.208;11.174;2023-04-25T17:40:53;7.10;1.00
6178;DHT22;3122;48.208;11.174;2023-04-25T17:45:54;6.50;1.00
6178;DHT22;3122;48.208;11.174;2023-04-25T17:50:54;6.40;1.00
6178;DHT22;3122;48.208;11.174;2023-04-25T17:55:55;6.20;1.00
6178;DHT22;3122;48.208;11.174;2023-04-25T18:00:56;6.30;1.00
6178;DHT22;3122;48.208;11.174;2023-04-25T18:05:57;6.20;1.00
6178;DHT22;3122;48.208;11.174;2023-04-25T18:10:57;5.90;1.00
6178;DHT22;3122;48.208;11.174;2023-04-25T18:15:58;5.80;1.00
6178;DHT22;3122;48.208;11.174;2023-04-25T18:20:59;5.70;1.00
6178;DHT22;3122;48.208;11.174;2023-04-25T18:26:04;5.60;1.00
6178;DHT22;3122;48.208;11.174;2023-04-25T18:31:05;5.80;1.00
6178;DHT22;3122;48.208;11.174;2023-04-25T18:36:06;5.90;1.00
6178;DHT22;3122;48.208;11.174;2023-04-25T18:41:07;6.00;1.00
6178;DHT22;3122;48.208;11.174;2023-04-25T18:46:07;6.00;1.00
6178;DHT22;3122;48.208;11.174;2023-04-25T18:51:08;6.00;1.00
6178;DHT22;3122;48.208;11.174;2023-04-25T18:56:09;6.00;1.00
6178;DHT22;3122;48.208;11.174;2023-04-25T19:01:09;6.10;1.00
6178;DHT22;3122;48.208;11.174;2023-04-25T19:06:10;6.20;1.00
6178;DHT22;3122;48.208;11.174;2023-04-25T19:11:11;6.00;1.00
6178;DHT22;3122;48.208;11.174;2023-04-25T19:16:12;6.10;1.00
6178;DHT22;3122;48.208;11.174;2023-04-25T19:21:13;6.10;1.00
6178;DHT22;3122;48.208;11.174;2023-04-25T19:26:13;6.10;1.00
6178;DHT22;3122;48.208;11.174;2023-04-25T19:31:14;6.00;1.00
6178;DHT22;3122;48.208;11.174;2023-04-25T19:36:15;6.00;1.00
6178;DHT22;3122;48.208;11.174;2023-04-25T19:41:15;6.00;1.00
6178;DHT22;3122;48.208;11.174;2023-04-25T19:46:17;6.00;1.00
6178;DHT22;3122;48.208;11.174;2023-04-25T19:51:18;5.90;1.00
6178;DHT22;3122;48.208;11.174;2023-04-25T19:56:18;5.90;1.00
6178;DHT22;3122;48.208;11.174;2023-04-25T20:01:19;5.90;1.00
6178;DHT22;3122;48.208;11.174;2023-04-25T20:06:21;5.90;1.00
6178;DHT22;3122;48.208;11.174;2023-04-25T20:11:22;5.90;1.00
6178;DHT22;3122;48.208;11.174;2023-04-25T20:16:22;5.90;1.00
6178;DHT22;3122;48.208;11.174;2023-04-25T20:21:23;5.80;1.00
6178;DHT22;3122;48.208;11.174;2023-04-25T20:26:24;5.80;1.00
6178;DHT22;3122;48.208;11.174;2023-04-25T20:31:25;5.80;1.00
6178;DHT22;3122;48.208;11.174;2023-04-25T20:36:25;5.90;1.00
6178;DHT22;3122;48.208;11.174;2023-04-25T20:41:26;5.80;1.00
6178;DHT22;3122;48.208;11.174;2023-04-25T20:46:27;5.70;1.00
6178;DHT22;3122;48.208;11.174;2023-04-25T20:51:31;5.70;1.00
6178;DHT22;3122;48.208;11.174;2023-04-25T20:56:32;5.70;1.00
6178;DHT22;3122;48.208;11.174;2023-04-25T21:01:33;5.70;1.00
6178;DHT22;3122;48.208;11.174;2023-04-25T21:06:33;5.60;1.00
6178;DHT22;3122;48.208;11.174;2023-04-25T21:11:34;5.50;1.00
6178;DHT22;3122;48.208;11.174;2023-04-25T21:16:34;5.60;1.00
6178;DHT22;3122;48.208;11.174;2023-04-25T21:21:37;5.70;1.00
6178;DHT22;3122;48.208;11.174;2023-04-25T21:26:39;5.80;1.00
6178;DHT22;3122;48.208;11.174;2023-04-25T21:31:39;5.70;1.00
6178;DHT22;3122;48.208;11.174;2023-04-25T21:36:41;5.70;1.00
6178;DHT22;3122;48.208;11.174;2023-04-25T21:41:43;5.70;1.00
6178;DHT22;3122;48.208;11.174;2023-04-25T21:46:44;5.70;1.00
6178;DHT22;3122;48.208;11.174;2023-04-25T21:51:44;5.70;1.00
6178;DHT22;3122;48.208;11.174;2023-04-25T21:56:45;5.70;1.00
6178;DHT22;3122;48.208;11.174;2023-04-25T22:01:46;5.70;1.00
6178;DHT22;3122;48.208;11.174;2023-04-25T22:06:47;5.80;1.00
6178;DHT22;3122;48.208;11.174;2023-04-25T22:11:47;5.60;1.00
6178;DHT22;3122;48.208;11.174;2023-04-25T22:16:48;5.50;1.00
6178;DHT22;3122;48.208;11.174;2023-04-25T22:21:49;5.40;1.00
6178;DHT22;3122;48.208;11.174;2023-04-25T22:26:49;5.30;1.00
6178;DHT22;3122;48.208;11.174;2023-04-25T22:31:50;5.30;1.00
6178;DHT22;3122;48.208;11.174;2023-04-25T22:36:51;5.30;1.00
6178;DHT22;3122;48.208;11.174;2023-04-25T22:41:52;5.30;1.00
6178;DHT22;3122;48.208;11.174;2023-04-25T22:46:53;5.30;1.00
6178;DHT22;3122;48.208;11.174;2023-04-25T22:51:54;5.30;1.00
6178;DHT22;3122;48.208;11.174;2023-04-25T22:56:56;5.30;1.00
6178;DHT22;3122;48.208;11.174;2023-04-25T23:01:57;5.30;1.00
6178;DHT22;3122;48.208;11.174;2023-04-25T23:06:59;5.40;1.00
6178;DHT22;3122;48.208;11.174;2023-04-25T23:11:59;5.30;1.00
6178;DHT22;3122;48.208;11.174;2023-04-25T23:17:01;5.40;1.00
6178;DHT22;3122;48.208;11.174;2023-04-25T23:22:01;5.20;1.00
6178;DHT22;3122;48.208;11.174;2023-04-25T23:27:03;5.30;1.00
6178;DHT22;3122;48.208;11.174;2023-04-25T23:32:04;5.20;1.00
6178;DHT22;3122;48.208;11.174;2023-04-25T23:37:05;5.30;1.00
6178;DHT22;3122;48.208;11.174;2023-04-25T23:42:06;5.40;1.00
6178;DHT22;3122;48.208;11.174;2023-04-25T23:47:07;5.50;1.00
6178;DHT22;3122;48.208;11.174;2023-04-25T23:52:08;5.50;1.00
6178;DHT22;3122;48.208;11.174;2023-04-25T23:57:09;5.50;1.00
